sensor_id;sensor_type;location;lat;lon;timestamp;P1;durP1;ratioP1;P2;durP2;ratioP2
22256;SDS011;11297;42.686;23.374;2023-03-14T00:00:08;8.73;;;6.30;;
22256;SDS011;11297;42.686;23.374;2023-03-14T00:02:35;6.50;;;5.70;;
22256;SDS011;11297;42.686;23.374;2023-03-14T00:05:01;8.37;;;5.47;;
22256;SDS011;11297;42.686;23.374;2023-03-14T00:07:31;7.73;;;6.00;;
22256;SDS011;11297;42.686;23.374;2023-03-14T00:10:05;7.93;;;5.97;;
22256;SDS011;11297;42.686;23.374;2023-03-14T00:12:32;7.37;;;5.63;;
22256;SDS011;11297;42.686;23.374;2023-03-14T00:14:58;6.40;;;5.23;;
22256;SDS011;11297;42.686;23.374;2023-03-14T00:17:25;5.63;;;4.93;;
22256;SDS011;11297;42.686;23.374;2023-03-14T00:19:52;8.33;;;5.73;;
22256;SDS011;11297;42.686;23.374;2023-03-14T00:22:18;6.80;;;5.77;;
22256;SDS011;11297;42.686;23.374;2023-03-14T00:24:45;5.80;;;4.87;;
22256;SDS011;11297;42.686;23.374;2023-03-14T00:27:10;8.60;;;5.47;;
22256;SDS011;11297;42.686;23.374;2023-03-14T00:29:36;6.10;;;5.43;;
22256;SDS011;11297;42.686;23.374;2023-03-14T00:32:01;6.43;;;5.40;;
22256;SDS011;11297;42.686;23.374;2023-03-14T00:34:30;7.40;;;5.83;;
22256;SDS011;11297;42.686;23.374;2023-03-14T00:36:56;7.53;;;6.00;;
22256;SDS011;11297;42.686;23.374;2023-03-14T00:39:21;7.47;;;5.23;;
22256;SDS011;11297;42.686;23.374;2023-03-14T00:41:46;6.70;;;5.97;;
22256;SDS011;11297;42.686;23.374;2023-03-14T00:44:12;7.83;;;5.77;;
22256;SDS011;11297;42.686;23.374;2023-03-14T00:46:38;7.53;;;5.97;;
22256;SDS011;11297;42.686;23.374;2023-03-14T00:49:03;6.00;;;5.40;;
22256;SDS011;11297;42.686;23.374;2023-03-14T00:51:29;8.53;;;5.87;;
22256;SDS011;11297;42.686;23.374;2023-03-14T00:53:54;5.73;;;5.20;;
22256;SDS011;11297;42.686;23.374;2023-03-14T00:56:19;9.13;;;5.27;;
22256;SDS011;11297;42.686;23.374;2023-03-14T00:58:45;7.03;;;5.07;;
22256;SDS011;11297;42.686;23.374;2023-03-14T01:01:17;4.83;;;4.30;;
22256;SDS011;11297;42.686;23.374;2023-03-14T01:03:43;6.70;;;4.70;;
22256;SDS011;11297;42.686;23.374;2023-03-14T01:06:11;4.60;;;4.20;;
22256;SDS011;11297;42.686;23.374;2023-03-14T01:08:38;6.97;;;4.90;;
22256;SDS011;11297;42.686;23.374;2023-03-14T01:11:05;4.97;;;4.47;;
22256;SDS011;11297;42.686;23.374;2023-03-14T01:13:38;5.80;;;5.10;;
22256;SDS011;11297;42.686;23.374;2023-03-14T01:16:04;6.63;;;4.57;;
22256;SDS011;11297;42.686;23.374;2023-03-14T01:18:32;8.50;;;5.17;;
22256;SDS011;11297;42.686;23.374;2023-03-14T01:21:00;6.17;;;5.13;;
22256;SDS011;11297;42.686;23.374;2023-03-14T01:23:26;7.63;;;4.90;;
22256;SDS011;11297;42.686;23.374;2023-03-14T01:25:52;7.23;;;5.47;;
22256;SDS011;11297;42.686;23.374;2023-03-14T01:28:17;10.67;;;5.97;;
22256;SDS011;11297;42.686;23.374;2023-03-14T01:30:42;8.20;;;6.13;;
22256;SDS011;11297;42.686;23.374;2023-03-14T01:33:08;9.43;;;5.63;;
22256;SDS011;11297;42.686;23.374;2023-03-14T01:35:33;10.10;;;6.50;;
22256;SDS011;11297;42.686;23.374;2023-03-14T01:37:58;8.33;;;6.13;;
22256;SDS011;11297;42.686;23.374;2023-03-14T01:40:24;6.87;;;5.10;;
22256;SDS011;11297;42.686;23.374;2023-03-14T01:42:56;8.13;;;5.67;;
22256;SDS011;11297;42.686;23.374;2023-03-14T01:48:26;10.30;;;6.10;;
22256;SDS011;11297;42.686;23.374;2023-03-14T01:50:56;5.73;;;4.90;;
22256;SDS011;11297;42.686;23.374;2023-03-14T01:53:24;6.17;;;4.80;;
22256;SDS011;11297;42.686;23.374;2023-03-14T01:55:50;5.97;;;5.37;;
22256;SDS011;11297;42.686;23.374;2023-03-14T01:58:17;5.53;;;4.90;;
22256;SDS011;11297;42.686;23.374;2023-03-14T02:00:45;6.07;;;5.10;;
22256;SDS011;11297;42.686;23.374;2023-03-14T02:03:11;5.07;;;4.60;;
22256;SDS011;11297;42.686;23.374;2023-03-14T02:05:41;5.20;;;4.63;;
22256;SDS011;11297;42.686;23.374;2023-03-14T02:08:13;7.37;;;4.87;;
22256;SDS011;11297;42.686;23.374;2023-03-14T02:10:47;5.00;;;4.50;;
22256;SDS011;11297;42.686;23.374;2023-03-14T02:13:14;6.20;;;5.10;;
22256;SDS011;11297;42.686;23.374;2023-03-14T02:15:41;6.40;;;4.60;;
22256;SDS011;11297;42.686;23.374;2023-03-14T02:18:07;7.33;;;5.53;;
22256;SDS011;11297;42.686;23.374;2023-03-14T02:26:21;6.33;;;5.00;;
22256;SDS011;11297;42.686;23.374;2023-03-14T02:28:51;6.07;;;4.93;;
22256;SDS011;11297;42.686;23.374;2023-03-14T02:31:18;14.80;;;8.27;;
22256;SDS011;11297;42.686;23.374;2023-03-14T02:33:46;13.33;;;9.37;;
22256;SDS011;11297;42.686;23.374;2023-03-14T02:36:11;9.83;;;7.37;;
22256;SDS011;11297;42.686;23.374;2023-03-14T02:41:30;9.47;;;7.03;;
22256;SDS011;11297;42.686;23.374;2023-03-14T02:43:56;13.10;;;8.73;;
22256;SDS011;11297;42.686;23.374;2023-03-14T02:46:21;10.80;;;8.93;;
22256;SDS011;11297;42.686;23.374;2023-03-14T02:48:51;12.57;;;8.90;;
22256;SDS011;11297;42.686;23.374;2023-03-14T02:51:21;12.10;;;9.20;;
22256;SDS011;11297;42.686;23.374;2023-03-14T02:53:48;13.37;;;9.30;;
22256;SDS011;11297;42.686;23.374;2023-03-14T02:56:13;15.20;;;10.13;;
22256;SDS011;11297;42.686;23.374;2023-03-14T02:58:39;10.90;;;8.67;;
22256;SDS011;11297;42.686;23.374;2023-03-14T03:01:04;10.00;;;8.23;;
22256;SDS011;11297;42.686;23.374;2023-03-14T03:03:30;10.27;;;7.57;;
22256;SDS011;11297;42.686;23.374;2023-03-14T03:05:56;10.20;;;8.00;;
22256;SDS011;11297;42.686;23.374;2023-03-14T03:08:22;9.80;;;7.57;;
22256;SDS011;11297;42.686;23.374;2023-03-14T03:10:49;8.37;;;7.10;;
22256;SDS011;11297;42.686;23.374;2023-03-14T03:13:15;12.57;;;8.07;;
22256;SDS011;11297;42.686;23.374;2023-03-14T03:15:41;10.60;;;7.47;;
22256;SDS011;11297;42.686;23.374;2023-03-14T03:18:07;12.07;;;8.87;;
22256;SDS011;11297;42.686;23.374;2023-03-14T03:20:33;13.30;;;9.13;;
22256;SDS011;11297;42.686;23.374;2023-03-14T03:22:59;10.07;;;8.30;;
22256;SDS011;11297;42.686;23.374;2023-03-14T03:25:25;9.27;;;7.93;;
22256;SDS011;11297;42.686;23.374;2023-03-14T03:27:50;14.77;;;9.00;;
22256;SDS011;11297;42.686;23.374;2023-03-14T03:30:16;11.40;;;8.37;;
22256;SDS011;11297;42.686;23.374;2023-03-14T03:32:42;10.53;;;8.87;;
22256;SDS011;11297;42.686;23.374;2023-03-14T03:35:07;11.53;;;9.17;;
22256;SDS011;11297;42.686;23.374;2023-03-14T03:37:33;13.90;;;9.30;;
22256;SDS011;11297;42.686;23.374;2023-03-14T03:39:59;12.07;;;10.23;;
22256;SDS011;11297;42.686;23.374;2023-03-14T03:42:26;16.13;;;10.10;;
22256;SDS011;11297;42.686;23.374;2023-03-14T03:44:52;18.13;;;10.30;;
22256;SDS011;11297;42.686;23.374;2023-03-14T03:47:17;13.17;;;10.87;;
22256;SDS011;11297;42.686;23.374;2023-03-14T03:49:42;16.77;;;11.17;;
22256;SDS011;11297;42.686;23.374;2023-03-14T03:52:08;13.17;;;10.50;;
22256;SDS011;11297;42.686;23.374;2023-03-14T03:54:34;20.27;;;10.87;;
22256;SDS011;11297;42.686;23.374;2023-03-14T03:56:59;15.33;;;10.83;;
22256;SDS011;11297;42.686;23.374;2023-03-14T03:59:25;17.07;;;10.70;;
22256;SDS011;11297;42.686;23.374;2023-03-14T04:01:50;19.50;;;11.93;;
22256;SDS011;11297;42.686;23.374;2023-03-14T04:04:16;16.60;;;11.70;;
22256;SDS011;11297;42.686;23.374;2023-03-14T04:06:41;16.40;;;11.73;;
22256;SDS011;11297;42.686;23.374;2023-03-14T04:09:07;16.83;;;11.20;;
22256;SDS011;11297;42.686;23.374;2023-03-14T04:11:34;18.03;;;11.17;;
22256;SDS011;11297;42.686;23.374;2023-03-14T04:13:59;17.43;;;11.70;;
22256;SDS011;11297;42.686;23.374;2023-03-14T04:16:25;19.17;;;12.13;;
22256;SDS011;11297;42.686;23.374;2023-03-14T04:18:51;19.43;;;11.93;;
22256;SDS011;11297;42.686;23.374;2023-03-14T04:21:17;18.97;;;11.53;;
22256;SDS011;11297;42.686;23.374;2023-03-14T04:23:43;16.00;;;12.50;;
22256;SDS011;11297;42.686;23.374;2023-03-14T04:26:09;17.97;;;12.53;;
22256;SDS011;11297;42.686;23.374;2023-03-14T04:28:34;17.57;;;13.27;;
22256;SDS011;11297;42.686;23.374;2023-03-14T04:31:11;19.37;;;12.23;;
22256;SDS011;11297;42.686;23.374;2023-03-14T04:33:39;18.10;;;12.57;;
22256;SDS011;11297;42.686;23.374;2023-03-14T04:36:05;21.50;;;13.03;;
22256;SDS011;11297;42.686;23.374;2023-03-14T04:38:31;18.13;;;12.40;;
22256;SDS011;11297;42.686;23.374;2023-03-14T04:40:57;16.93;;;12.33;;
22256;SDS011;11297;42.686;23.374;2023-03-14T04:43:24;15.17;;;12.13;;
22256;SDS011;11297;42.686;23.374;2023-03-14T04:45:50;20.37;;;12.80;;
22256;SDS011;11297;42.686;23.374;2023-03-14T04:48:16;19.20;;;13.47;;
22256;SDS011;11297;42.686;23.374;2023-03-14T04:50:42;18.80;;;13.10;;
22256;SDS011;11297;42.686;23.374;2023-03-14T04:53:07;20.97;;;13.60;;
22256;SDS011;11297;42.686;23.374;2023-03-14T04:55:32;23.80;;;15.13;;
22256;SDS011;11297;42.686;23.374;2023-03-14T04:57:59;22.93;;;16.03;;
22256;SDS011;11297;42.686;23.374;2023-03-14T05:00:25;27.33;;;20.47;;
22256;SDS011;11297;42.686;23.374;2023-03-14T05:02:50;48.13;;;28.90;;
22256;SDS011;11297;42.686;23.374;2023-03-14T05:05:15;46.93;;;31.20;;
22256;SDS011;11297;42.686;23.374;2023-03-14T05:07:41;46.70;;;32.90;;
22256;SDS011;11297;42.686;23.374;2023-03-14T05:10:07;43.83;;;29.97;;
22256;SDS011;11297;42.686;23.374;2023-03-14T05:12:33;61.40;;;39.67;;
22256;SDS011;11297;42.686;23.374;2023-03-14T05:14:58;52.00;;;34.17;;
22256;SDS011;11297;42.686;23.374;2023-03-14T05:17:23;50.03;;;32.73;;
22256;SDS011;11297;42.686;23.374;2023-03-14T05:19:49;47.80;;;28.93;;
22256;SDS011;11297;42.686;23.374;2023-03-14T05:22:14;40.27;;;27.63;;
22256;SDS011;11297;42.686;23.374;2023-03-14T05:24:39;51.10;;;29.27;;
22256;SDS011;11297;42.686;23.374;2023-03-14T05:27:05;39.57;;;23.83;;
22256;SDS011;11297;42.686;23.374;2023-03-14T05:29:31;36.73;;;23.93;;
22256;SDS011;11297;42.686;23.374;2023-03-14T05:31:56;48.10;;;29.03;;
22256;SDS011;11297;42.686;23.374;2023-03-14T05:34:22;32.00;;;21.90;;
22256;SDS011;11297;42.686;23.374;2023-03-14T05:36:47;55.87;;;37.70;;
22256;SDS011;11297;42.686;23.374;2023-03-14T05:39:12;56.23;;;36.67;;
22256;SDS011;11297;42.686;23.374;2023-03-14T05:41:38;53.53;;;35.10;;
22256;SDS011;11297;42.686;23.374;2023-03-14T05:44:03;38.73;;;24.47;;
22256;SDS011;11297;42.686;23.374;2023-03-14T05:46:29;29.77;;;21.20;;
22256;SDS011;11297;42.686;23.374;2023-03-14T05:48:56;29.70;;;19.70;;
22256;SDS011;11297;42.686;23.374;2023-03-14T05:51:24;35.50;;;23.00;;
22256;SDS011;11297;42.686;23.374;2023-03-14T05:53:50;35.67;;;21.33;;
22256;SDS011;11297;42.686;23.374;2023-03-14T05:56:16;34.00;;;21.80;;
22256;SDS011;11297;42.686;23.374;2023-03-14T05:58:41;26.07;;;17.10;;
22256;SDS011;11297;42.686;23.374;2023-03-14T06:01:07;27.23;;;18.03;;
22256;SDS011;11297;42.686;23.374;2023-03-14T06:03:33;19.40;;;15.17;;
22256;SDS011;11297;42.686;23.374;2023-03-14T06:05:59;24.67;;;15.80;;
22256;SDS011;11297;42.686;23.374;2023-03-14T06:08:25;21.93;;;15.07;;
22256;SDS011;11297;42.686;23.374;2023-03-14T06:10:51;28.93;;;15.13;;
22256;SDS011;11297;42.686;23.374;2023-03-14T06:13:16;25.13;;;15.97;;
22256;SDS011;11297;42.686;23.374;2023-03-14T06:15:42;24.03;;;16.27;;
22256;SDS011;11297;42.686;23.374;2023-03-14T06:18:08;23.10;;;14.57;;
22256;SDS011;11297;42.686;23.374;2023-03-14T06:20:35;22.80;;;15.73;;
22256;SDS011;11297;42.686;23.374;2023-03-14T06:23:04;27.10;;;17.13;;
22256;SDS011;11297;42.686;23.374;2023-03-14T06:25:29;27.10;;;17.77;;
22256;SDS011;11297;42.686;23.374;2023-03-14T06:27:55;24.27;;;16.80;;
22256;SDS011;11297;42.686;23.374;2023-03-14T06:30:20;21.13;;;17.20;;
22256;SDS011;11297;42.686;23.374;2023-03-14T06:32:45;22.47;;;17.07;;
22256;SDS011;11297;42.686;23.374;2023-03-14T06:35:11;21.07;;;16.97;;
22256;SDS011;11297;42.686;23.374;2023-03-14T06:37:36;21.50;;;17.43;;
22256;SDS011;11297;42.686;23.374;2023-03-14T06:40:02;19.90;;;16.73;;
22256;SDS011;11297;42.686;23.374;2023-03-14T06:42:27;25.77;;;16.67;;
22256;SDS011;11297;42.686;23.374;2023-03-14T06:44:53;23.23;;;16.43;;
22256;SDS011;11297;42.686;23.374;2023-03-14T06:47:18;21.57;;;16.73;;
22256;SDS011;11297;42.686;23.374;2023-03-14T06:49:44;24.93;;;17.17;;
22256;SDS011;11297;42.686;23.374;2023-03-14T06:52:09;23.97;;;15.93;;
22256;SDS011;11297;42.686;23.374;2023-03-14T06:54:34;25.27;;;17.10;;
22256;SDS011;11297;42.686;23.374;2023-03-14T06:57:00;23.87;;;16.30;;
22256;SDS011;11297;42.686;23.374;2023-03-14T06:59:25;27.23;;;16.43;;
22256;SDS011;11297;42.686;23.374;2023-03-14T07:01:50;28.10;;;17.20;;
22256;SDS011;11297;42.686;23.374;2023-03-14T07:04:16;24.63;;;17.93;;
22256;SDS011;11297;42.686;23.374;2023-03-14T07:06:42;30.67;;;16.53;;
22256;SDS011;11297;42.686;23.374;2023-03-14T07:09:12;25.30;;;17.00;;
22256;SDS011;11297;42.686;23.374;2023-03-14T07:11:38;31.90;;;20.70;;
22256;SDS011;11297;42.686;23.374;2023-03-14T07:14:03;19.93;;;13.87;;
22256;SDS011;11297;42.686;23.374;2023-03-14T07:16:29;17.80;;;12.77;;
22256;SDS011;11297;42.686;23.374;2023-03-14T07:18:57;16.33;;;10.93;;
22256;SDS011;11297;42.686;23.374;2023-03-14T07:21:23;15.40;;;11.53;;
22256;SDS011;11297;42.686;23.374;2023-03-14T07:23:49;18.37;;;11.23;;
22256;SDS011;11297;42.686;23.374;2023-03-14T07:26:14;14.37;;;11.37;;
22256;SDS011;11297;42.686;23.374;2023-03-14T07:28:40;14.27;;;11.30;;
22256;SDS011;11297;42.686;23.374;2023-03-14T07:31:05;17.33;;;11.73;;
22256;SDS011;11297;42.686;23.374;2023-03-14T07:33:31;18.33;;;12.87;;
22256;SDS011;11297;42.686;23.374;2023-03-14T07:35:57;13.00;;;10.70;;
22256;SDS011;11297;42.686;23.374;2023-03-14T07:38:23;12.93;;;10.40;;
22256;SDS011;11297;42.686;23.374;2023-03-14T07:40:48;12.07;;;10.27;;
22256;SDS011;11297;42.686;23.374;2023-03-14T07:43:14;15.37;;;10.40;;
22256;SDS011;11297;42.686;23.374;2023-03-14T07:45:39;13.17;;;10.17;;
22256;SDS011;11297;42.686;23.374;2023-03-14T07:48:05;13.57;;;9.40;;
22256;SDS011;11297;42.686;23.374;2023-03-14T07:50:30;13.40;;;9.73;;
22256;SDS011;11297;42.686;23.374;2023-03-14T07:52:55;11.50;;;8.43;;
22256;SDS011;11297;42.686;23.374;2023-03-14T07:55:21;13.40;;;9.97;;
22256;SDS011;11297;42.686;23.374;2023-03-14T07:57:46;12.23;;;9.73;;
22256;SDS011;11297;42.686;23.374;2023-03-14T08:00:12;15.00;;;10.23;;
22256;SDS011;11297;42.686;23.374;2023-03-14T08:02:39;13.10;;;9.63;;
22256;SDS011;11297;42.686;23.374;2023-03-14T08:05:05;12.27;;;9.83;;
22256;SDS011;11297;42.686;23.374;2023-03-14T08:07:31;11.80;;;9.97;;
22256;SDS011;11297;42.686;23.374;2023-03-14T08:09:57;11.53;;;9.47;;
22256;SDS011;11297;42.686;23.374;2023-03-14T08:12:22;11.73;;;8.93;;
22256;SDS011;11297;42.686;23.374;2023-03-14T08:14:47;13.03;;;9.63;;
22256;SDS011;11297;42.686;23.374;2023-03-14T08:17:13;10.53;;;8.63;;
22256;SDS011;11297;42.686;23.374;2023-03-14T08:19:38;9.40;;;7.90;;
22256;SDS011;11297;42.686;23.374;2023-03-14T08:22:05;12.00;;;8.20;;
22256;SDS011;11297;42.686;23.374;2023-03-14T08:24:31;10.77;;;8.30;;
22256;SDS011;11297;42.686;23.374;2023-03-14T08:26:56;10.83;;;8.40;;
22256;SDS011;11297;42.686;23.374;2023-03-14T08:29:21;9.00;;;8.00;;
22256;SDS011;11297;42.686;23.374;2023-03-14T08:31:47;12.03;;;7.90;;
22256;SDS011;11297;42.686;23.374;2023-03-14T08:34:13;8.80;;;7.90;;
22256;SDS011;11297;42.686;23.374;2023-03-14T08:36:40;8.83;;;7.93;;
22256;SDS011;11297;42.686;23.374;2023-03-14T08:39:05;9.97;;;7.77;;
22256;SDS011;11297;42.686;23.374;2023-03-14T08:41:32;9.73;;;7.73;;
22256;SDS011;11297;42.686;23.374;2023-03-14T08:43:57;9.67;;;7.53;;
22256;SDS011;11297;42.686;23.374;2023-03-14T08:46:23;10.00;;;7.63;;
22256;SDS011;11297;42.686;23.374;2023-03-14T08:48:48;8.23;;;6.97;;
22256;SDS011;11297;42.686;23.374;2023-03-14T08:51:14;9.77;;;7.10;;
22256;SDS011;11297;42.686;23.374;2023-03-14T08:53:40;8.53;;;6.43;;
22256;SDS011;11297;42.686;23.374;2023-03-14T08:56:05;10.20;;;6.70;;
22256;SDS011;11297;42.686;23.374;2023-03-14T08:58:32;6.80;;;6.10;;
22256;SDS011;11297;42.686;23.374;2023-03-14T09:00:58;8.03;;;6.43;;
22256;SDS011;11297;42.686;23.374;2023-03-14T09:03:24;8.90;;;7.30;;
22256;SDS011;11297;42.686;23.374;2023-03-14T09:05:51;11.40;;;6.93;;
22256;SDS011;11297;42.686;23.374;2023-03-14T09:08:17;7.53;;;6.77;;
22256;SDS011;11297;42.686;23.374;2023-03-14T09:10:42;12.30;;;7.50;;
22256;SDS011;11297;42.686;23.374;2023-03-14T09:13:08;6.20;;;5.70;;
22256;SDS011;11297;42.686;23.374;2023-03-14T09:15:33;8.63;;;5.97;;
22256;SDS011;11297;42.686;23.374;2023-03-14T09:17:58;6.70;;;5.40;;
22256;SDS011;11297;42.686;23.374;2023-03-14T09:20:24;6.50;;;5.90;;
22256;SDS011;11297;42.686;23.374;2023-03-14T09:22:49;9.07;;;6.33;;
22256;SDS011;11297;42.686;23.374;2023-03-14T09:25:15;8.73;;;6.03;;
22256;SDS011;11297;42.686;23.374;2023-03-14T09:27:40;10.03;;;6.60;;
22256;SDS011;11297;42.686;23.374;2023-03-14T09:30:06;7.87;;;6.30;;
22256;SDS011;11297;42.686;23.374;2023-03-14T09:32:32;8.07;;;5.97;;
22256;SDS011;11297;42.686;23.374;2023-03-14T09:34:57;11.77;;;6.87;;
22256;SDS011;11297;42.686;23.374;2023-03-14T09:37:23;8.70;;;7.30;;
22256;SDS011;11297;42.686;23.374;2023-03-14T09:39:48;10.47;;;6.53;;
22256;SDS011;11297;42.686;23.374;2023-03-14T09:42:17;10.40;;;7.90;;
22256;SDS011;11297;42.686;23.374;2023-03-14T09:44:49;11.70;;;7.60;;
22256;SDS011;11297;42.686;23.374;2023-03-14T09:47:26;11.23;;;7.93;;
22256;SDS011;11297;42.686;23.374;2023-03-14T09:49:53;9.60;;;7.73;;
22256;SDS011;11297;42.686;23.374;2023-03-14T09:54:53;8.23;;;6.20;;
22256;SDS011;11297;42.686;23.374;2023-03-14T09:57:23;7.63;;;6.93;;
22256;SDS011;11297;42.686;23.374;2023-03-14T09:59:50;8.17;;;6.70;;
22256;SDS011;11297;42.686;23.374;2023-03-14T10:02:20;7.80;;;5.57;;
22256;SDS011;11297;42.686;23.374;2023-03-14T10:04:51;8.00;;;5.67;;
22256;SDS011;11297;42.686;23.374;2023-03-14T10:07:27;7.47;;;5.47;;
22256;SDS011;11297;42.686;23.374;2023-03-14T10:09:54;10.47;;;6.23;;
22256;SDS011;11297;42.686;23.374;2023-03-14T10:12:20;5.13;;;4.57;;
22256;SDS011;11297;42.686;23.374;2023-03-14T10:14:56;6.37;;;4.80;;
22256;SDS011;11297;42.686;23.374;2023-03-14T10:17:37;9.73;;;7.00;;
22256;SDS011;11297;42.686;23.374;2023-03-14T10:20:04;5.40;;;4.47;;
22256;SDS011;11297;42.686;23.374;2023-03-14T10:22:32;5.87;;;5.13;;
22256;SDS011;11297;42.686;23.374;2023-03-14T10:25:01;9.23;;;5.27;;
22256;SDS011;11297;42.686;23.374;2023-03-14T10:27:33;4.67;;;4.23;;
22256;SDS011;11297;42.686;23.374;2023-03-14T10:30:01;5.00;;;4.50;;
22256;SDS011;11297;42.686;23.374;2023-03-14T10:32:32;7.50;;;4.70;;
22256;SDS011;11297;42.686;23.374;2023-03-14T10:35:07;7.37;;;4.33;;
22256;SDS011;11297;42.686;23.374;2023-03-14T10:37:52;4.20;;;3.70;;
22256;SDS011;11297;42.686;23.374;2023-03-14T10:40:23;6.90;;;4.67;;
22256;SDS011;11297;42.686;23.374;2023-03-14T10:42:52;8.67;;;5.43;;
22256;SDS011;11297;42.686;23.374;2023-03-14T10:47:53;4.33;;;3.93;;
22256;SDS011;11297;42.686;23.374;2023-03-14T10:50:29;4.07;;;3.67;;
22256;SDS011;11297;42.686;23.374;2023-03-14T10:52:56;4.57;;;3.90;;
22256;SDS011;11297;42.686;23.374;2023-03-14T10:55:25;4.20;;;3.80;;
22256;SDS011;11297;42.686;23.374;2023-03-14T10:57:51;5.13;;;4.53;;
22256;SDS011;11297;42.686;23.374;2023-03-14T11:00:18;4.57;;;3.83;;
22256;SDS011;11297;42.686;23.374;2023-03-14T11:05:25;6.87;;;4.50;;
22256;SDS011;11297;42.686;23.374;2023-03-14T11:07:54;5.93;;;4.10;;
22256;SDS011;11297;42.686;23.374;2023-03-14T11:10:35;5.90;;;4.17;;
22256;SDS011;11297;42.686;23.374;2023-03-14T11:13:16;7.00;;;3.60;;
22256;SDS011;11297;42.686;23.374;2023-03-14T11:16:01;7.33;;;4.50;;
22256;SDS011;11297;42.686;23.374;2023-03-14T11:21:03;4.90;;;3.97;;
22256;SDS011;11297;42.686;23.374;2023-03-14T11:26:36;4.27;;;2.90;;
22256;SDS011;11297;42.686;23.374;2023-03-14T11:29:40;4.20;;;3.20;;
22256;SDS011;11297;42.686;23.374;2023-03-14T11:32:14;3.30;;;3.00;;
22256;SDS011;11297;42.686;23.374;2023-03-14T11:37:21;3.57;;;3.17;;
22256;SDS011;11297;42.686;23.374;2023-03-14T11:39:55;3.27;;;2.97;;
22256;SDS011;11297;42.686;23.374;2023-03-14T11:42:31;4.67;;;2.90;;
22256;SDS011;11297;42.686;23.374;2023-03-14T11:44:58;22.27;;;11.20;;
22256;SDS011;11297;42.686;23.374;2023-03-14T11:47:26;14.50;;;8.33;;
22256;SDS011;11297;42.686;23.374;2023-03-14T11:52:34;15.77;;;10.13;;
22256;SDS011;11297;42.686;23.374;2023-03-14T11:55:13;12.80;;;8.40;;
22256;SDS011;11297;42.686;23.374;2023-03-14T11:57:40;7.47;;;5.30;;
22256;SDS011;11297;42.686;23.374;2023-03-14T12:05:28;7.93;;;5.17;;
22256;SDS011;11297;42.686;23.374;2023-03-14T12:10:50;5.70;;;3.70;;
22256;SDS011;11297;42.686;23.374;2023-03-14T12:13:19;5.07;;;2.63;;
22256;SDS011;11297;42.686;23.374;2023-03-14T12:18:54;4.30;;;3.90;;
22256;SDS011;11297;42.686;23.374;2023-03-14T12:21:19;3.30;;;2.20;;
22256;SDS011;11297;42.686;23.374;2023-03-14T12:23:50;3.70;;;1.97;;
22256;SDS011;11297;42.686;23.374;2023-03-14T12:26:19;3.00;;;2.00;;
22256;SDS011;11297;42.686;23.374;2023-03-14T12:28:51;1.93;;;1.83;;
22256;SDS011;11297;42.686;23.374;2023-03-14T12:36:45;2.73;;;2.37;;
22256;SDS011;11297;42.686;23.374;2023-03-14T12:42:05;4.00;;;2.00;;
22256;SDS011;11297;42.686;23.374;2023-03-14T12:44:39;3.80;;;2.20;;
22256;SDS011;11297;42.686;23.374;2023-03-14T12:49:43;4.33;;;2.10;;
22256;SDS011;11297;42.686;23.374;2023-03-14T12:52:15;5.37;;;2.20;;
22256;SDS011;11297;42.686;23.374;2023-03-14T12:54:52;4.63;;;2.07;;
22256;SDS011;11297;42.686;23.374;2023-03-14T13:00:20;3.30;;;1.90;;
22256;SDS011;11297;42.686;23.374;2023-03-14T13:02:48;2.47;;;2.10;;
22256;SDS011;11297;42.686;23.374;2023-03-14T13:12:37;2.47;;;2.20;;
22256;SDS011;11297;42.686;23.374;2023-03-14T13:15:15;2.90;;;1.97;;
22256;SDS011;11297;42.686;23.374;2023-03-14T13:18:11;5.77;;;3.33;;
22256;SDS011;11297;42.686;23.374;2023-03-14T13:20:41;2.63;;;2.30;;
22256;SDS011;11297;42.686;23.374;2023-03-14T13:23:30;2.60;;;2.00;;
22256;SDS011;11297;42.686;23.374;2023-03-14T13:25:57;4.10;;;2.97;;
22256;SDS011;11297;42.686;23.374;2023-03-14T13:28:24;2.80;;;2.60;;
22256;SDS011;11297;42.686;23.374;2023-03-14T13:30:50;4.67;;;2.63;;
22256;SDS011;11297;42.686;23.374;2023-03-14T13:33:21;4.10;;;2.17;;
22256;SDS011;11297;42.686;23.374;2023-03-14T13:36:01;3.97;;;2.10;;
22256;SDS011;11297;42.686;23.374;2023-03-14T13:38:30;2.20;;;2.00;;
22256;SDS011;11297;42.686;23.374;2023-03-14T13:40:58;2.30;;;2.10;;
22256;SDS011;11297;42.686;23.374;2023-03-14T13:43:41;2.17;;;1.90;;
22256;SDS011;11297;42.686;23.374;2023-03-14T13:46:13;2.70;;;2.20;;
22256;SDS011;11297;42.686;23.374;2023-03-14T13:48:53;3.47;;;2.63;;
22256;SDS011;11297;42.686;23.374;2023-03-14T13:51:22;2.13;;;1.80;;
22256;SDS011;11297;42.686;23.374;2023-03-14T13:53:51;2.40;;;2.20;;
22256;SDS011;11297;42.686;23.374;2023-03-14T13:56:18;2.70;;;1.90;;
22256;SDS011;11297;42.686;23.374;2023-03-14T13:58:45;4.43;;;2.13;;
22256;SDS011;11297;42.686;23.374;2023-03-14T14:03:43;3.83;;;1.77;;
22256;SDS011;11297;42.686;23.374;2023-03-14T14:06:30;3.23;;;2.27;;
22256;SDS011;11297;42.686;23.374;2023-03-14T14:09:20;2.57;;;2.33;;
22256;SDS011;11297;42.686;23.374;2023-03-14T14:12:04;2.17;;;1.90;;
22256;SDS011;11297;42.686;23.374;2023-03-14T14:14:35;6.53;;;5.00;;
22256;SDS011;11297;42.686;23.374;2023-03-14T14:17:08;3.60;;;3.20;;
22256;SDS011;11297;42.686;23.374;2023-03-14T14:19:36;3.03;;;2.30;;
22256;SDS011;11297;42.686;23.374;2023-03-14T14:22:03;5.37;;;3.53;;
22256;SDS011;11297;42.686;23.374;2023-03-14T14:24:32;3.23;;;2.40;;
22256;SDS011;11297;42.686;23.374;2023-03-14T14:27:08;3.80;;;1.97;;
22256;SDS011;11297;42.686;23.374;2023-03-14T14:29:34;3.93;;;2.67;;
22256;SDS011;11297;42.686;23.374;2023-03-14T14:32:17;3.10;;;2.80;;
22256;SDS011;11297;42.686;23.374;2023-03-14T14:34:56;3.63;;;1.93;;
22256;SDS011;11297;42.686;23.374;2023-03-14T14:37:24;5.97;;;2.13;;
22256;SDS011;11297;42.686;23.374;2023-03-14T14:39:54;2.90;;;1.90;;
22256;SDS011;11297;42.686;23.374;2023-03-14T14:42:24;2.87;;;1.87;;
22256;SDS011;11297;42.686;23.374;2023-03-14T14:44:52;3.90;;;2.00;;
22256;SDS011;11297;42.686;23.374;2023-03-14T14:47:19;6.37;;;2.03;;
22256;SDS011;11297;42.686;23.374;2023-03-14T14:49:48;2.90;;;1.87;;
22256;SDS011;11297;42.686;23.374;2023-03-14T14:53:00;2.67;;;2.00;;
22256;SDS011;11297;42.686;23.374;2023-03-14T14:55:40;4.97;;;2.20;;
22256;SDS011;11297;42.686;23.374;2023-03-14T14:58:11;3.53;;;2.10;;
22256;SDS011;11297;42.686;23.374;2023-03-14T15:00:48;3.40;;;2.27;;
22256;SDS011;11297;42.686;23.374;2023-03-14T15:03:16;2.00;;;1.80;;
22256;SDS011;11297;42.686;23.374;2023-03-14T15:05:42;2.73;;;1.90;;
22256;SDS011;11297;42.686;23.374;2023-03-14T15:08:10;2.73;;;2.10;;
22256;SDS011;11297;42.686;23.374;2023-03-14T15:10:36;2.80;;;2.37;;
22256;SDS011;11297;42.686;23.374;2023-03-14T15:13:01;2.73;;;1.90;;
22256;SDS011;11297;42.686;23.374;2023-03-14T15:15:26;4.67;;;2.00;;
22256;SDS011;11297;42.686;23.374;2023-03-14T15:17:52;3.10;;;2.20;;
22256;SDS011;11297;42.686;23.374;2023-03-14T15:20:17;2.20;;;2.00;;
22256;SDS011;11297;42.686;23.374;2023-03-14T15:22:44;2.50;;;2.23;;
22256;SDS011;11297;42.686;23.374;2023-03-14T15:25:11;4.20;;;2.13;;
22256;SDS011;11297;42.686;23.374;2023-03-14T15:27:36;2.30;;;1.90;;
22256;SDS011;11297;42.686;23.374;2023-03-14T15:30:09;3.83;;;2.40;;
22256;SDS011;11297;42.686;23.374;2023-03-14T15:32:36;4.20;;;3.00;;
22256;SDS011;11297;42.686;23.374;2023-03-14T15:35:01;2.60;;;2.40;;